sensor_id;sensor_type;location;lat;lon;timestamp;pressure;altitude;pressure_sealevel;temperature;humidity
69245;BME280;56357;52.304;4.870;2022-09-09T00:02:27;100911.22;;;21.80;59.89
69245;BME280;56357;52.304;4.870;2022-09-09T00:05:14;100912.34;;;21.79;59.64
69245;BME280;56357;52.304;4.870;2022-09-09T00:07:49;100905.66;;;21.75;59.76
69245;BME280;56357;52.304;4.870;2022-09-09T00:10:29;100905.66;;;21.75;59.95
69245;BME280;56357;52.304;4.870;2022-09-09T00:13:16;100908.53;;;21.70;59.90
69245;BME280;56357;52.304;4.870;2022-09-09T00:21:16;100887.44;;;21.68;59.86
69245;BME280;56357;52.304;4.870;2022-09-09T00:23:51;100894.72;;;21.69;60.06
69245;BME280;56357;52.304;4.870;2022-09-09T00:26:29;100901.75;;;21.71;59.80
69245;BME280;56357;52.304;4.870;2022-09-09T00:31:30;100896.56;;;21.60;60.00
69245;BME280;56357;52.304;4.870;2022-09-09T00:34:08;100899.06;;;21.61;59.93
69245;BME280;56357;52.304;4.870;2022-09-09T00:36:38;100891.53;;;21.57;59.95
69245;BME280;56357;52.304;4.870;2022-09-09T00:44:39;100884.84;;;21.53;60.39
69245;BME280;56357;52.304;4.870;2022-09-09T00:55:32;100896.16;;;21.48;60.28
69245;BME280;56357;52.304;4.870;2022-09-09T00:57:59;100888.56;;;21.48;60.33
69245;BME280;56357;52.304;4.870;2022-09-09T01:00:29;100891.22;;;21.40;60.56
69245;BME280;56357;52.304;4.870;2022-09-09T01:03:36;100891.44;;;21.43;60.57
69245;BME280;56357;52.304;4.870;2022-09-09T01:12:12;100890.38;;;21.39;60.47
69245;BME280;56357;52.304;4.870;2022-09-09T01:14:45;100890.69;;;21.38;60.51
69245;BME280;56357;52.304;4.870;2022-09-09T01:17:21;100898.28;;;21.37;60.52
69245;BME280;56357;52.304;4.870;2022-09-09T01:28:33;100895.56;;;21.32;60.71
69245;BME280;56357;52.304;4.870;2022-09-09T01:31:03;100884.00;;;21.29;60.82
69245;BME280;56357;52.304;4.870;2022-09-09T01:33:30;100881.50;;;21.27;60.91
69245;BME280;56357;52.304;4.870;2022-09-09T01:38:32;100888.84;;;21.28;60.73
69245;BME280;56357;52.304;4.870;2022-09-09T01:41:00;100887.22;;;21.22;60.91
69245;BME280;56357;52.304;4.870;2022-09-09T01:43:27;100880.44;;;21.23;60.84
69245;BME280;56357;52.304;4.870;2022-09-09T01:45:56;100880.75;;;21.22;61.18
69245;BME280;56357;52.304;4.870;2022-09-09T01:48:25;100870.84;;;21.24;60.91
69245;BME280;56357;52.304;4.870;2022-09-09T01:50:52;100867.28;;;21.19;60.85
69245;BME280;56357;52.304;4.870;2022-09-09T01:53:20;100869.47;;;21.22;60.99
69245;BME280;56357;52.304;4.870;2022-09-09T01:56:04;100871.50;;;21.16;61.05
69245;BME280;56357;52.304;4.870;2022-09-09T02:03:51;100868.41;;;21.18;60.52
69245;BME280;56357;52.304;4.870;2022-09-09T02:06:37;100867.53;;;21.17;60.81
69245;BME280;56357;52.304;4.870;2022-09-09T02:09:06;100863.38;;;21.15;60.85
69245;BME280;56357;52.304;4.870;2022-09-09T02:11:34;100866.47;;;21.13;60.92
69245;BME280;56357;52.304;4.870;2022-09-09T02:14:08;100864.81;;;21.12;60.94
69245;BME280;56357;52.304;4.870;2022-09-09T02:16:44;100870.97;;;21.14;60.94
69245;BME280;56357;52.304;4.870;2022-09-09T02:19:22;100870.38;;;21.17;60.75
69245;BME280;56357;52.304;4.870;2022-09-09T02:21:52;100860.59;;;21.10;60.95
69245;BME280;56357;52.304;4.870;2022-09-09T02:24:21;100857.78;;;21.10;60.92
69245;BME280;56357;52.304;4.870;2022-09-09T02:26:49;100853.00;;;21.10;60.98
69245;BME280;56357;52.304;4.870;2022-09-09T02:29:22;100847.13;;;21.07;60.89
69245;BME280;56357;52.304;4.870;2022-09-09T02:31:50;100846.28;;;21.06;60.90
69245;BME280;56357;52.304;4.870;2022-09-09T02:34:22;100857.56;;;21.06;60.91
69245;BME280;56357;52.304;4.870;2022-09-09T02:36:51;100848.25;;;21.06;60.91
69245;BME280;56357;52.304;4.870;2022-09-09T02:39:19;100844.31;;;21.07;60.89
69245;BME280;56357;52.304;4.870;2022-09-09T02:41:46;100848.88;;;21.03;60.79
69245;BME280;56357;52.304;4.870;2022-09-09T02:44:17;100850.84;;;21.02;60.73
69245;BME280;56357;52.304;4.870;2022-09-09T02:53:02;100837.91;;;21.01;60.98
69245;BME280;56357;52.304;4.870;2022-09-09T02:55:38;100837.31;;;21.04;60.79
69245;BME280;56357;52.304;4.870;2022-09-09T02:58:07;100834.53;;;20.99;60.93
69245;BME280;56357;52.304;4.870;2022-09-09T03:00:36;100832.28;;;20.96;60.92
69245;BME280;56357;52.304;4.870;2022-09-09T03:03:05;100829.56;;;20.91;61.01
69245;BME280;56357;52.304;4.870;2022-09-09T03:05:32;100834.03;;;20.92;60.97
69245;BME280;56357;52.304;4.870;2022-09-09T03:07:58;100834.31;;;20.95;61.17
69245;BME280;56357;52.304;4.870;2022-09-09T03:10:25;100838.84;;;20.91;60.97
69245;BME280;56357;52.304;4.870;2022-09-09T03:12:51;100835.19;;;20.91;60.95
69245;BME280;56357;52.304;4.870;2022-09-09T03:15:18;100835.84;;;20.83;60.93
69245;BME280;56357;52.304;4.870;2022-09-09T03:17:44;100849.06;;;20.82;60.94
69245;BME280;56357;52.304;4.870;2022-09-09T03:20:10;100835.00;;;20.82;61.10
69245;BME280;56357;52.304;4.870;2022-09-09T03:22:37;100833.63;;;20.80;61.11
69245;BME280;56357;52.304;4.870;2022-09-09T03:25:04;100827.47;;;20.78;60.74
69245;BME280;56357;52.304;4.870;2022-09-09T03:27:30;100836.47;;;20.80;60.95
69245;BME280;56357;52.304;4.870;2022-09-09T03:29:57;100836.75;;;20.78;61.03
69245;BME280;56357;52.304;4.870;2022-09-09T03:32:24;100841.31;;;20.74;61.10
69245;BME280;56357;52.304;4.870;2022-09-09T03:34:51;100833.13;;;20.73;61.20
69245;BME280;56357;52.304;4.870;2022-09-09T03:37:19;100837.94;;;20.72;61.12
69245;BME280;56357;52.304;4.870;2022-09-09T03:39:45;100839.91;;;20.72;61.29
69245;BME280;56357;52.304;4.870;2022-09-09T03:42:13;100832.09;;;20.69;61.26
69245;BME280;56357;52.304;4.870;2022-09-09T03:44:44;100830.63;;;20.71;61.09
69245;BME280;56357;52.304;4.870;2022-09-09T03:47:19;100834.28;;;20.72;61.03
69245;BME280;56357;52.304;4.870;2022-09-09T03:49:47;100837.41;;;20.70;61.10
69245;BME280;56357;52.304;4.870;2022-09-09T03:52:14;100825.00;;;20.71;61.09
69245;BME280;56357;52.304;4.870;2022-09-09T03:54:41;100828.13;;;20.70;61.03
69245;BME280;56357;52.304;4.870;2022-09-09T03:57:09;100825.38;;;20.65;61.02
69245;BME280;56357;52.304;4.870;2022-09-09T03:59:36;100832.38;;;20.67;61.16
69245;BME280;56357;52.304;4.870;2022-09-09T04:02:03;100822.56;;;20.65;60.90
69245;BME280;56357;52.304;4.870;2022-09-09T04:04:30;100826.50;;;20.64;61.13
69245;BME280;56357;52.304;4.870;2022-09-09T04:06:57;100815.53;;;20.62;60.61
69245;BME280;56357;52.304;4.870;2022-09-09T04:09:23;100817.28;;;20.82;60.96
69245;BME280;56357;52.304;4.870;2022-09-09T04:11:50;100821.34;;;20.71;60.91
69245;BME280;56357;52.304;4.870;2022-09-09T04:14:16;100819.03;;;20.78;60.83
69245;BME280;56357;52.304;4.870;2022-09-09T04:16:43;100821.59;;;20.74;61.01
69245;BME280;56357;52.304;4.870;2022-09-09T04:19:10;100809.03;;;20.67;61.00
69245;BME280;56357;52.304;4.870;2022-09-09T04:21:39;100808.41;;;20.70;60.77
69245;BME280;56357;52.304;4.870;2022-09-09T04:24:07;100803.97;;;20.64;60.98
69245;BME280;56357;52.304;4.870;2022-09-09T04:26:35;100799.44;;;20.68;61.15
69245;BME280;56357;52.304;4.870;2022-09-09T04:29:05;100801.59;;;20.76;60.68
69245;BME280;56357;52.304;4.870;2022-09-09T04:31:32;100799.44;;;20.68;60.72
69245;BME280;56357;52.304;4.870;2022-09-09T04:34:01;100796.63;;;20.68;61.10
69245;BME280;56357;52.304;4.870;2022-09-09T04:36:31;100802.78;;;20.70;60.79
69245;BME280;56357;52.304;4.870;2022-09-09T04:38:58;100804.34;;;20.57;61.02
69245;BME280;56357;52.304;4.870;2022-09-09T04:41:24;100795.78;;;20.67;60.57
69245;BME280;56357;52.304;4.870;2022-09-09T04:43:51;100799.28;;;20.59;60.95
69245;BME280;56357;52.304;4.870;2022-09-09T04:46:19;100802.34;;;20.58;61.08
69245;BME280;56357;52.304;4.870;2022-09-09T04:48:45;100793.09;;;20.57;61.09
69245;BME280;56357;52.304;4.870;2022-09-09T04:51:13;100799.53;;;20.58;60.75
69245;BME280;56357;52.304;4.870;2022-09-09T04:53:40;100791.09;;;20.58;60.83
69245;BME280;56357;52.304;4.870;2022-09-09T04:56:09;100785.97;;;20.65;60.61
69245;BME280;56357;52.304;4.870;2022-09-09T04:58:36;100783.75;;;20.62;60.79
69245;BME280;56357;52.304;4.870;2022-09-09T05:01:13;100783.09;;;20.70;61.13
69245;BME280;56357;52.304;4.870;2022-09-09T05:03:40;100788.78;;;20.65;60.58
69245;BME280;56357;52.304;4.870;2022-09-09T05:06:12;100792.06;;;20.72;60.98
69245;BME280;56357;52.304;4.870;2022-09-09T05:08:41;100793.91;;;20.58;60.35
69245;BME280;56357;52.304;4.870;2022-09-09T05:11:21;100795.63;;;20.59;60.71
69245;BME280;56357;52.304;4.870;2022-09-09T05:13:49;100789.38;;;20.62;60.51
69245;BME280;56357;52.304;4.870;2022-09-09T05:16:17;100786.94;;;20.55;60.54
69245;BME280;56357;52.304;4.870;2022-09-09T05:18:44;100789.69;;;20.60;60.64
69245;BME280;56357;52.304;4.870;2022-09-09T05:21:11;100780.41;;;20.60;60.96
69245;BME280;56357;52.304;4.870;2022-09-09T05:23:38;100778.44;;;20.60;60.67
69245;BME280;56357;52.304;4.870;2022-09-09T05:26:06;100775.06;;;20.58;61.02
69245;BME280;56357;52.304;4.870;2022-09-09T05:28:34;100782.66;;;20.58;61.12
69245;BME280;56357;52.304;4.870;2022-09-09T05:31:03;100774.75;;;20.60;61.03
69245;BME280;56357;52.304;4.870;2022-09-09T05:33:31;100776.75;;;20.59;61.64
69245;BME280;56357;52.304;4.870;2022-09-09T05:36:12;100776.47;;;20.61;62.07
69245;BME280;56357;52.304;4.870;2022-09-09T05:38:40;100782.09;;;20.61;61.90
69245;BME280;56357;52.304;4.870;2022-09-09T05:41:07;100782.00;;;20.66;61.50
69245;BME280;56357;52.304;4.870;2022-09-09T05:43:34;100779.75;;;20.68;61.48
69245;BME280;56357;52.304;4.870;2022-09-09T05:46:12;100779.19;;;20.66;61.94
69245;BME280;56357;52.304;4.870;2022-09-09T05:48:43;100781.06;;;20.75;61.56
69245;BME280;56357;52.304;4.870;2022-09-09T05:51:13;100785.91;;;20.70;61.34
69245;BME280;56357;52.304;4.870;2022-09-09T05:53:41;100781.34;;;20.74;61.36
69245;BME280;56357;52.304;4.870;2022-09-09T05:56:16;100786.44;;;20.72;61.62
69245;BME280;56357;52.304;4.870;2022-09-09T05:58:44;100780.09;;;20.85;61.13
69245;BME280;56357;52.304;4.870;2022-09-09T06:01:25;100774.91;;;20.92;61.76
69245;BME280;56357;52.304;4.870;2022-09-09T06:03:52;100778.97;;;20.86;61.29
69245;BME280;56357;52.304;4.870;2022-09-09T06:06:21;100773.34;;;20.86;61.61
69245;BME280;56357;52.304;4.870;2022-09-09T06:08:51;100762.97;;;20.81;61.68
69245;BME280;56357;52.304;4.870;2022-09-09T06:11:22;100772.00;;;21.02;61.87
69245;BME280;56357;52.304;4.870;2022-09-09T06:13:50;100778.22;;;20.99;61.64
69245;BME280;56357;52.304;4.870;2022-09-09T06:16:20;100788.22;;;21.10;60.63
69245;BME280;56357;52.304;4.870;2022-09-09T06:18:48;100787.09;;;21.11;60.77
69245;BME280;56357;52.304;4.870;2022-09-09T06:21:17;100775.22;;;21.14;60.84
69245;BME280;56357;52.304;4.870;2022-09-09T06:23:45;100789.97;;;21.06;60.84
69245;BME280;56357;52.304;4.870;2022-09-09T06:26:15;100786.94;;;21.21;60.85
69245;BME280;56357;52.304;4.870;2022-09-09T06:28:42;100784.13;;;21.21;60.65
69245;BME280;56357;52.304;4.870;2022-09-09T06:31:10;100782.00;;;21.32;60.30
69245;BME280;56357;52.304;4.870;2022-09-09T06:33:39;100794.50;;;21.44;60.19
69245;BME280;56357;52.304;4.870;2022-09-09T06:36:16;100783.16;;;21.49;59.68
69245;BME280;56357;52.304;4.870;2022-09-09T06:38:43;100787.94;;;21.49;59.02
69245;BME280;56357;52.304;4.870;2022-09-09T06:41:11;100790.59;;;21.40;59.19
69245;BME280;56357;52.304;4.870;2022-09-09T06:43:38;100793.91;;;21.47;59.13
69245;BME280;56357;52.304;4.870;2022-09-09T06:46:08;100796.50;;;21.44;59.47
69245;BME280;56357;52.304;4.870;2022-09-09T06:48:34;100782.25;;;21.35;59.49
69245;BME280;56357;52.304;4.870;2022-09-09T06:51:15;100792.16;;;21.51;59.48
69245;BME280;56357;52.304;4.870;2022-09-09T06:53:43;100787.19;;;21.62;59.29
69245;BME280;56357;52.304;4.870;2022-09-09T06:58:40;100790.31;;;21.60;59.14
69245;BME280;56357;52.304;4.870;2022-09-09T07:01:08;100794.44;;;21.49;59.75
69245;BME280;56357;52.304;4.870;2022-09-09T07:03:35;100796.25;;;21.40;60.03
69245;BME280;56357;52.304;4.870;2022-09-09T07:06:02;100791.91;;;21.48;59.98
69245;BME280;56357;52.304;4.870;2022-09-09T07:08:29;100787.81;;;21.59;59.81
69245;BME280;56357;52.304;4.870;2022-09-09T07:11:04;100798.53;;;21.57;59.40
69245;BME280;56357;52.304;4.870;2022-09-09T07:13:31;100789.63;;;21.50;59.41
69245;BME280;56357;52.304;4.870;2022-09-09T07:16:08;100783.59;;;21.56;59.19
69245;BME280;56357;52.304;4.870;2022-09-09T07:18:34;100784.66;;;21.60;58.95
69245;BME280;56357;52.304;4.870;2022-09-09T07:21:02;100783.75;;;21.65;58.94
69245;BME280;56357;52.304;4.870;2022-09-09T07:23:30;100789.69;;;21.63;58.94
69245;BME280;56357;52.304;4.870;2022-09-09T07:25:57;100783.28;;;21.58;59.13
69245;BME280;56357;52.304;4.870;2022-09-09T07:28:24;100783.38;;;21.53;59.38
69245;BME280;56357;52.304;4.870;2022-09-09T07:30:59;100786.50;;;21.51;59.37
69245;BME280;56357;52.304;4.870;2022-09-09T07:33:27;100783.59;;;21.56;59.11
69245;BME280;56357;52.304;4.870;2022-09-09T07:36:02;100783.28;;;21.58;59.22
69245;BME280;56357;52.304;4.870;2022-09-09T07:38:28;100785.25;;;21.57;59.15
69245;BME280;56357;52.304;4.870;2022-09-09T07:41:03;100779.56;;;21.62;58.94
69245;BME280;56357;52.304;4.870;2022-09-09T07:43:31;100783.69;;;21.51;59.38
69245;BME280;56357;52.304;4.870;2022-09-09T07:45:59;100790.25;;;21.47;59.55
69245;BME280;56357;52.304;4.870;2022-09-09T07:48:26;100779.66;;;21.39;59.63
69245;BME280;56357;52.304;4.870;2022-09-09T07:51:05;100794.56;;;21.39;59.67
69245;BME280;56357;52.304;4.870;2022-09-09T07:53:32;100790.00;;;21.43;59.61
69245;BME280;56357;52.304;4.870;2022-09-09T07:56:04;100788.78;;;21.49;59.69
69245;BME280;56357;52.304;4.870;2022-09-09T07:58:30;100789.38;;;21.46;59.42
69245;BME280;56357;52.304;4.870;2022-09-09T08:00:57;100783.91;;;21.55;59.60
69245;BME280;56357;52.304;4.870;2022-09-09T08:03:23;100783.38;;;21.53;59.49
69245;BME280;56357;52.304;4.870;2022-09-09T08:05:50;100781.63;;;21.57;59.32
69245;BME280;56357;52.304;4.870;2022-09-09T08:08:16;100783.81;;;21.60;59.17
69245;BME280;56357;52.304;4.870;2022-09-09T08:10:43;100790.53;;;21.64;59.23
69245;BME280;56357;52.304;4.870;2022-09-09T08:13:09;100787.47;;;21.79;58.63
69245;BME280;56357;52.304;4.870;2022-09-09T08:15:36;100785.72;;;21.83;58.52
69245;BME280;56357;52.304;4.870;2022-09-09T08:18:02;100788.03;;;21.81;58.64
69245;BME280;56357;52.304;4.870;2022-09-09T08:20:29;100787.34;;;21.89;58.31
69245;BME280;56357;52.304;4.870;2022-09-09T08:22:55;100780.78;;;21.94;58.01
69245;BME280;56357;52.304;4.870;2022-09-09T08:25:22;100784.34;;;21.99;58.21
69245;BME280;56357;52.304;4.870;2022-09-09T08:27:48;100787.13;;;21.86;58.24
69245;BME280;56357;52.304;4.870;2022-09-09T08:30:14;100783.06;;;21.92;58.56
69245;BME280;56357;52.304;4.870;2022-09-09T08:32:41;100781.78;;;21.84;58.46
69245;BME280;56357;52.304;4.870;2022-09-09T08:35:08;100794.94;;;21.89;58.19
69245;BME280;56357;52.304;4.870;2022-09-09T08:37:35;100788.19;;;21.90;58.47
69245;BME280;56357;52.304;4.870;2022-09-09T08:40:01;100799.78;;;22.02;57.98
69245;BME280;56357;52.304;4.870;2022-09-09T08:42:40;100794.13;;;21.88;58.15
69245;BME280;56357;52.304;4.870;2022-09-09T08:45:31;100798.69;;;21.84;58.53
69245;BME280;56357;52.304;4.870;2022-09-09T08:48:13;100795.03;;;21.83;58.44
69245;BME280;56357;52.304;4.870;2022-09-09T08:50:43;100794.25;;;21.97;58.24
69245;BME280;56357;52.304;4.870;2022-09-09T08:53:19;100799.31;;;22.13;57.61
69245;BME280;56357;52.304;4.870;2022-09-09T08:55:56;100800.03;;;22.05;57.95
69245;BME280;56357;52.304;4.870;2022-09-09T08:58:34;100805.22;;;21.98;58.23
69245;BME280;56357;52.304;4.870;2022-09-09T09:06:26;100795.88;;;21.84;58.63
69245;BME280;56357;52.304;4.870;2022-09-09T09:09:08;100806.59;;;22.01;58.06
69245;BME280;56357;52.304;4.870;2022-09-09T09:11:42;100805.56;;;22.10;57.92
69245;BME280;56357;52.304;4.870;2022-09-09T09:16:56;100806.00;;;22.17;57.61
69245;BME280;56357;52.304;4.870;2022-09-09T09:19:24;100812.59;;;22.13;57.47
69245;BME280;56357;52.304;4.870;2022-09-09T09:27:21;100809.13;;;22.16;57.50
69245;BME280;56357;52.304;4.870;2022-09-09T09:29:50;100816.75;;;22.15;57.69
69245;BME280;56357;52.304;4.870;2022-09-09T09:32:19;100805.56;;;22.10;57.73
69245;BME280;56357;52.304;4.870;2022-09-09T09:34:55;100809.78;;;22.13;57.77
69245;BME280;56357;52.304;4.870;2022-09-09T09:37:33;100821.09;;;22.26;57.10
69245;BME280;56357;52.304;4.870;2022-09-09T09:40:12;100818.50;;;22.30;56.92
69245;BME280;56357;52.304;4.870;2022-09-09T09:42:51;100812.75;;;22.35;57.07
69245;BME280;56357;52.304;4.870;2022-09-09T09:45:42;100815.66;;;22.30;57.36
69245;BME280;56357;52.304;4.870;2022-09-09T09:48:12;100818.91;;;22.37;56.82
69245;BME280;56357;52.304;4.870;2022-09-09T09:50:54;100807.09;;;22.35;57.09
69245;BME280;56357;52.304;4.870;2022-09-09T09:53:25;100812.31;;;22.28;57.02
69245;BME280;56357;52.304;4.870;2022-09-09T09:56:04;100813.16;;;22.28;57.06
69245;BME280;56357;52.304;4.870;2022-09-09T09:58:33;100810.59;;;22.45;57.01
69245;BME280;56357;52.304;4.870;2022-09-09T10:01:04;100825.13;;;22.52;56.34
69245;BME280;56357;52.304;4.870;2022-09-09T10:03:33;100810.78;;;22.49;56.46
69245;BME280;56357;52.304;4.870;2022-09-09T10:06:03;100804.03;;;22.77;55.60
69245;BME280;56357;52.304;4.870;2022-09-09T10:08:34;100803.63;;;22.70;55.94
69245;BME280;56357;52.304;4.870;2022-09-09T10:14:30;100804.25;;;22.67;56.20
69245;BME280;56357;52.304;4.870;2022-09-09T10:17:09;100802.91;;;22.78;55.96
69245;BME280;56357;52.304;4.870;2022-09-09T10:19:43;100806.34;;;22.89;55.61
69245;BME280;56357;52.304;4.870;2022-09-09T10:22:27;100801.03;;;22.87;55.05
69245;BME280;56357;52.304;4.870;2022-09-09T10:30:53;100810.22;;;22.79;55.71
69245;BME280;56357;52.304;4.870;2022-09-09T10:33:29;100808.31;;;22.88;55.54
69245;BME280;56357;52.304;4.870;2022-09-09T10:36:01;100807.72;;;22.78;55.47
69245;BME280;56357;52.304;4.870;2022-09-09T10:38:45;100799.25;;;22.91;55.46
69245;BME280;56357;52.304;4.870;2022-09-09T10:52:09;100804.75;;;23.10;55.42
69245;BME280;56357;52.304;4.870;2022-09-09T10:57:28;100801.31;;;23.13;55.07
69245;BME280;56357;52.304;4.870;2022-09-09T10:59:59;100792.66;;;22.82;55.58
69245;BME280;56357;52.304;4.870;2022-09-09T11:02:30;100796.75;;;22.76;56.21
69245;BME280;56357;52.304;4.870;2022-09-09T11:07:53;100794.31;;;22.83;55.97
69245;BME280;56357;52.304;4.870;2022-09-09T11:10:37;100796.75;;;22.90;55.65
69245;BME280;56357;52.304;4.870;2022-09-09T11:15:58;100773.63;;;22.60;56.27
69245;BME280;56357;52.304;4.870;2022-09-09T11:18:28;100783.47;;;22.63;56.47
69245;BME280;56357;52.304;4.870;2022-09-09T11:20:59;100785.44;;;22.76;56.27
69245;BME280;56357;52.304;4.870;2022-09-09T11:23:41;100775.72;;;22.82;56.03
69245;BME280;56357;52.304;4.870;2022-09-09T11:26:18;100791.91;;;22.90;55.68
69245;BME280;56357;52.304;4.870;2022-09-09T11:29:25;100789.72;;;22.87;56.07
69245;BME280;56357;52.304;4.870;2022-09-09T11:34:56;100791.16;;;22.98;55.94
69245;BME280;56357;52.304;4.870;2022-09-09T11:37:33;100783.34;;;23.09;55.54
69245;BME280;56357;52.304;4.870;2022-09-09T11:40:24;100790.75;;;23.05;55.45
69245;BME280;56357;52.304;4.870;2022-09-09T11:43:11;100791.25;;;23.20;55.34
69245;BME280;56357;52.304;4.870;2022-09-09T11:45:40;100778.28;;;23.33;54.99
69245;BME280;56357;52.304;4.870;2022-09-09T11:48:27;100792.59;;;23.23;55.56
69245;BME280;56357;52.304;4.870;2022-09-09T11:51:00;100796.47;;;23.27;55.19
69245;BME280;56357;52.304;4.870;2022-09-09T11:53:28;100802.38;;;23.17;55.52
69245;BME280;56357;52.304;4.870;2022-09-09T11:56:09;100804.75;;;23.23;55.33
69245;BME280;56357;52.304;4.870;2022-09-09T11:59:24;100802.13;;;23.40;55.07
69245;BME280;56357;52.304;4.870;2022-09-09T12:01:42;100795.00;;;23.43;54.84
69245;BME280;56357;52.304;4.870;2022-09-09T12:15:00;100785.41;;;23.30;55.37
69245;BME280;56357;52.304;4.870;2022-09-09T12:17:29;100790.09;;;23.21;55.96
69245;BME280;56357;52.304;4.870;2022-09-09T12:20:11;100788.47;;;22.93;56.45
69245;BME280;56357;52.304;4.870;2022-09-09T12:23:55;100784.16;;;22.96;56.74
69245;BME280;56357;52.304;4.870;2022-09-09T12:28:43;100777.69;;;23.09;55.88
69245;BME280;56357;52.304;4.870;2022-09-09T12:34:16;100789.06;;;23.04;56.27
69245;BME280;56357;52.304;4.870;2022-09-09T12:36:48;100780.53;;;22.95;56.99
69245;BME280;56357;52.304;4.870;2022-09-09T12:39:40;100777.91;;;22.85;57.11
69245;BME280;56357;52.304;4.870;2022-09-09T12:42:18;100775.72;;;22.82;57.80
69245;BME280;56357;52.304;4.870;2022-09-09T12:44:59;100785.13;;;22.91;57.26
69245;BME280;56357;52.304;4.870;2022-09-09T12:47:38;100786.03;;;23.00;57.12
69245;BME280;56357;52.304;4.870;2022-09-09T12:50:24;100779.13;;;23.06;56.82
69245;BME280;56357;52.304;4.870;2022-09-09T12:52:54;100785.19;;;23.00;56.78
69245;BME280;56357;52.304;4.870;2022-09-09T12:55:25;100791.16;;;22.98;56.91
69245;BME280;56357;52.304;4.870;2022-09-09T12:57:55;100802.25;;;23.08;56.80
69245;BME280;56357;52.304;4.870;2022-09-09T13:00:24;100795.16;;;23.11;56.93
69245;BME280;56357;52.304;4.870;2022-09-09T13:03:00;100799.63;;;23.12;57.31
69245;BME280;56357;52.304;4.870;2022-09-09T13:05:38;100799.22;;;23.18;57.24
69245;BME280;56357;52.304;4.870;2022-09-09T13:08:06;100801.63;;;23.11;57.81
69245;BME280;56357;52.304;4.870;2022-09-09T13:10:50;100794.63;;;22.95;58.61
69245;BME280;56357;52.304;4.870;2022-09-09T13:13:31;100796.72;;;23.03;58.13
69245;BME280;56357;52.304;4.870;2022-09-09T13:16:01;100799.84;;;23.02;58.25
69245;BME280;56357;52.304;4.870;2022-09-09T13:18:32;100788.53;;;23.15;57.71
69245;BME280;56357;52.304;4.870;2022-09-09T13:21:00;100785.19;;;23.13;58.39
69245;BME280;56357;52.304;4.870;2022-09-09T13:23:31;100784.56;;;23.16;58.12
69245;BME280;56357;52.304;4.870;2022-09-09T13:26:00;100786.03;;;23.14;57.94
69245;BME280;56357;52.304;4.870;2022-09-09T13:28:29;100794.44;;;23.05;58.77
69245;BME280;56357;52.304;4.870;2022-09-09T13:33:48;100787.50;;;22.98;59.00
69245;BME280;56357;52.304;4.870;2022-09-09T13:36:14;100797.25;;;23.05;58.60
69245;BME280;56357;52.304;4.870;2022-09-09T13:38:55;100790.03;;;23.13;58.03
69245;BME280;56357;52.304;4.870;2022-09-09T13:41:28;100783.31;;;23.22;57.96
69245;BME280;56357;52.304;4.870;2022-09-09T13:43:56;100790.63;;;23.23;58.05
69245;BME280;56357;52.304;4.870;2022-09-09T13:46:39;100783.09;;;23.19;58.09
69245;BME280;56357;52.304;4.870;2022-09-09T13:51:48;100787.28;;;23.21;57.99
69245;BME280;56357;52.304;4.870;2022-09-09T13:54:17;100792.53;;;23.14;57.97
69245;BME280;56357;52.304;4.870;2022-09-09T13:56:44;100797.97;;;23.11;58.47
69245;BME280;56357;52.304;4.870;2022-09-09T13:59:14;100790.84;;;23.13;58.12
69245;BME280;56357;52.304;4.870;2022-09-09T14:01:41;100788.44;;;23.20;57.92
69245;BME280;56357;52.304;4.870;2022-09-09T14:04:08;100784.56;;;23.30;57.36
69245;BME280;56357;52.304;4.870;2022-09-09T14:06:36;100784.84;;;23.28;57.51
69245;BME280;56357;52.304;4.870;2022-09-09T14:09:10;100781.63;;;23.35;57.56
69245;BME280;56357;52.304;4.870;2022-09-09T14:11:37;100778.91;;;23.43;56.85
69245;BME280;56357;52.304;4.870;2022-09-09T14:14:05;100778.06;;;23.43;57.13
69245;BME280;56357;52.304;4.870;2022-09-09T14:16:32;100777.50;;;23.54;56.36
69245;BME280;56357;52.304;4.870;2022-09-09T14:18:58;100766.56;;;23.39;57.20
69245;BME280;56357;52.304;4.870;2022-09-09T14:21:26;100769.44;;;23.48;56.85
69245;BME280;56357;52.304;4.870;2022-09-09T14:23:53;100781.34;;;23.58;57.01
69245;BME280;56357;52.304;4.870;2022-09-09T14:26:23;100783.22;;;23.63;56.52
69245;BME280;56357;52.304;4.870;2022-09-09T14:28:50;100781.75;;;23.66;56.65
69245;BME280;56357;52.304;4.870;2022-09-09T14:31:16;100777.56;;;23.63;56.67
69245;BME280;56357;52.304;4.870;2022-09-09T14:33:44;100775.75;;;23.45;57.21
69245;BME280;56357;52.304;4.870;2022-09-09T14:36:11;100770.50;;;23.25;57.64
69245;BME280;56357;52.304;4.870;2022-09-09T14:38:38;100775.56;;;23.14;58.22
69245;BME280;56357;52.304;4.870;2022-09-09T14:41:06;100777.75;;;23.17;58.23
69245;BME280;56357;52.304;4.870;2022-09-09T14:43:33;100776.19;;;23.11;58.72
69245;BME280;56357;52.304;4.870;2022-09-09T14:46:06;100791.47;;;23.10;58.33
69245;BME280;56357;52.304;4.870;2022-09-09T14:48:33;100794.81;;;23.12;57.80
69245;BME280;56357;52.304;4.870;2022-09-09T14:51:16;100795.69;;;23.13;57.26
69245;BME280;56357;52.304;4.870;2022-09-09T14:53:44;100793.59;;;23.05;57.65
69245;BME280;56357;52.304;4.870;2022-09-09T14:56:17;100785.44;;;23.03;57.53
69245;BME280;56357;52.304;4.870;2022-09-09T14:58:44;100795.78;;;22.94;58.26
69245;BME280;56357;52.304;4.870;2022-09-09T15:01:13;100793.38;;;23.01;58.03
69245;BME280;56357;52.304;4.870;2022-09-09T15:03:41;100797.88;;;23.02;57.40
69245;BME280;56357;52.304;4.870;2022-09-09T15:06:13;100794.00;;;22.85;58.12
69245;BME280;56357;52.304;4.870;2022-09-09T15:08:42;100804.38;;;22.89;58.43
69245;BME280;56357;52.304;4.870;2022-09-09T15:11:10;100806.13;;;22.85;58.03
69245;BME280;56357;52.304;4.870;2022-09-09T15:13:38;100809.06;;;22.66;58.60